LIPZ/VCE METAR and TAF weather

Enter ICAO airport designator
Station Type Date Time Source
LIPZ METAR 2020/04/03 07:20 UTC NOAA

LIPZ 030720Z 02004KT 9000 NSC 07/02 Q1014 NOSIG


Station Type Date Time Source
LIPZ Decoded METAR 2020/04/03 07:20 UTC NOAA

Venezia / Tessera, Italy (LIPZ) 45-30N 012-20E 6M
Apr 03, 2020 - 03:20 AM EDT / 2020.04.03 0720 UTC
Wind: from the NNE (020 degrees) at 5 MPH (4 KT):0
Visibility: 5 mile(s):0
Temperature: 44 F (7 C)
Dew Point: 35 F (2 C)
Relative Humidity: 70%
Pressure (altimeter): 29.94 in. Hg (1014 hPa)
ob: LIPZ 030720Z 02004KT 9000 NSC 07/02 Q1014 NOSIG
cycle: 7

Station Type Date Time Source
LIPZ TAF 2020/04/03 06:21 UTC NOAA

TAF LIPZ 030500Z 0306/0412 VRB05KT CAVOK
BECMG 0321/0324 04010KT

Example: see airport list